Time;durP1;ratioP1;P1;durP2;ratioP2;P2;SDS_P1;SDS_P2;PMS_P1;PMS_P2;Temp;Humidity;BMP_temperature;BMP_pressure;BME280_temperature;BME280_humidity;BME280_pressure;Samples;Min_cycle;Max_cycle;Signal;HPM_P1;HPM_P2
2021/06/06 00:01:39;;;;;;;3.37;3.07;;;15.80;99.90;;;;;;5054893;28;20472;-87
2021/06/06 00:04:11;;;;;;;3.90;2.57;;;15.80;99.90;;;;;;5053920;28;20437;-80
2021/06/06 00:06:39;;;;;;;3.00;2.77;;;15.80;99.90;;;;;;5054645;28;20462;-91
2021/06/06 00:09:09;;;;;;;3.13;2.80;;;15.80;99.90;;;;;;5054210;28;20500;-82
2021/06/06 00:11:38;;;;;;;3.53;3.00;;;15.80;99.90;;;;;;5053385;28;21042;-82
2021/06/06 00:14:08;;;;;;;4.47;3.00;;;15.80;99.90;;;;;;5053583;28;20933;-81
2021/06/06 00:16:36;;;;;;;2.50;2.30;;;15.80;99.90;;;;;;5053673;28;20881;-82
2021/06/06 00:19:03;;;;;;;2.70;2.50;;;15.80;99.90;;;;;;5053732;28;20430;-81
2021/06/06 00:21:31;;;;;;;3.57;2.80;;;15.80;99.90;;;;;;5053753;28;20466;-82
2021/06/06 00:23:58;;;;;;;3.00;2.73;;;15.80;99.90;;;;;;5053630;28;20445;-82
2021/06/06 00:26:25;;;;;;;4.80;2.90;;;15.80;99.90;;;;;;5053071;28;20450;-82
2021/06/06 00:28:51;;;;;;;3.60;2.73;;;15.80;99.90;;;;;;5054224;28;20445;-91
2021/06/06 00:31:18;;;;;;;3.17;2.80;;;15.80;99.90;;;;;;5054162;28;20469;-82
2021/06/06 00:33:45;;;;;;;3.37;3.07;;;15.80;99.90;;;;;;5053508;28;20499;-82
2021/06/06 00:36:11;;;;;;;3.80;3.00;;;15.80;99.90;;;;;;5054170;28;20446;-87
2021/06/06 00:38:39;;;;;;;3.10;2.90;;;15.80;99.90;;;;;;5054143;28;20922;-91
2021/06/06 00:41:07;;;;;;;2.30;2.10;;;15.80;99.90;;;;;;5065648;28;20459;-90
2021/06/06 00:43:33;;;;;;;2.57;2.33;;;15.80;99.90;;;;;;5068904;28;20450;-91
2021/06/06 00:46:00;;;;;;;3.00;2.70;;;15.80;99.90;;;;;;5068554;28;20947;-91
2021/06/06 00:48:27;;;;;;;2.77;2.57;;;15.80;99.90;;;;;;5061591;28;20487;-81
2021/06/06 00:50:58;;;;;;;2.30;2.00;;;15.80;99.90;;;;;;5052818;28;20466;-80
2021/06/06 00:53:30;;;;;;;5.00;2.20;;;15.70;99.90;;;;;;5052893;28;20981;-81
2021/06/06 00:55:59;;;;;;;3.10;2.10;;;15.80;99.90;;;;;;5053179;28;20430;-81
2021/06/06 00:58:25;;;;;;;2.20;2.00;;;15.70;99.90;;;;;;5053240;28;20441;-81
2021/06/06 01:00:54;;;;;;;2.70;2.40;;;15.70;99.90;;;;;;5053826;28;20477;-80
2021/06/06 01:03:22;;;;;;;2.13;1.93;;;15.70;99.90;;;;;;5053643;28;20446;-81
2021/06/06 01:05:53;;;;;;;2.60;2.27;;;15.70;99.90;;;;;;5053101;28;20821;-81
2021/06/06 01:08:20;;;;;;;3.10;2.43;;;15.70;99.90;;;;;;5052872;28;20466;-82
2021/06/06 01:10:50;;;;;;;2.33;1.93;;;15.70;99.90;;;;;;5053372;28;20514;-90
2021/06/06 01:13:21;;;;;;;1.77;1.67;;;15.70;99.90;;;;;;5054111;28;20422;-90
2021/06/06 01:15:52;;;;;;;2.07;1.97;;;15.70;99.90;;;;;;5054137;28;20438;-90
2021/06/06 01:18:25;;;;;;;2.87;2.30;;;15.70;99.90;;;;;;5054761;28;20805;-90
2021/06/06 01:21:00;;;;;;;2.10;1.90;;;15.70;99.90;;;;;;5054075;28;20481;-87
2021/06/06 01:23:41;;;;;;;3.93;1.90;;;15.70;99.90;;;;;;5053200;28;20434;-81
2021/06/06 01:26:13;;;;;;;2.07;1.70;;;15.70;99.90;;;;;;5053039;28;20442;-81
2021/06/06 01:28:44;;;;;;;1.93;1.83;;;15.60;99.90;;;;;;5052924;28;20902;-82
2021/06/06 01:31:14;;;;;;;2.83;2.33;;;15.60;99.90;;;;;;5053585;28;20446;-82
2021/06/06 01:33:46;;;;;;;3.03;2.50;;;15.60;99.90;;;;;;5052962;28;20488;-81
2021/06/06 01:36:16;;;;;;;2.83;2.57;;;15.60;99.90;;;;;;5052801;28;20802;-80
2021/06/06 01:38:48;;;;;;;3.80;2.93;;;15.70;99.90;;;;;;5052751;28;20478;-81
2021/06/06 01:41:19;;;;;;;3.07;2.77;;;15.60;99.90;;;;;;5056217;28;20985;-81
2021/06/06 01:43:50;;;;;;;3.77;2.67;;;15.60;99.90;;;;;;5056474;28;20410;-82
2021/06/06 01:46:19;;;;;;;3.43;2.20;;;15.60;99.90;;;;;;5056191;28;20926;-82
2021/06/06 01:48:47;;;;;;;2.37;2.17;;;15.60;99.90;;;;;;5057177;28;20452;-80
2021/06/06 01:51:19;;;;;;;2.57;2.37;;;15.60;99.90;;;;;;5056274;28;20965;-86
2021/06/06 01:53:47;;;;;;;2.30;1.90;;;15.60;99.90;;;;;;5056953;28;20928;-87
2021/06/06 01:56:19;;;;;;;2.60;2.40;;;15.60;99.90;;;;;;5056965;28;20856;-86
2021/06/06 01:58:47;;;;;;;2.60;2.40;;;15.60;99.90;;;;;;5056921;28;20797;-80
2021/06/06 02:01:17;;;;;;;3.00;2.73;;;15.60;99.90;;;;;;5056077;28;20469;-80
2021/06/06 02:03:44;;;;;;;3.27;2.97;;;15.50;99.90;;;;;;5057112;28;20438;-80
2021/06/06 02:06:14;;;;;;;3.63;2.70;;;15.50;99.90;;;;;;5056072;28;20457;-81
2021/06/06 02:08:42;;;;;;;3.77;2.90;;;15.50;99.90;;;;;;5055988;28;20496;-81
2021/06/06 02:11:12;;;;;;;3.43;3.13;;;15.50;99.90;;;;;;5055586;28;20485;-80
2021/06/06 02:13:44;;;;;;;4.10;2.97;;;15.40;99.90;;;;;;5055741;28;20450;-80
2021/06/06 02:16:14;;;;;;;4.47;3.07;;;15.40;99.90;;;;;;5057699;28;20450;-87
2021/06/06 02:18:40;;;;;;;3.97;3.03;;;15.40;99.90;;;;;;5056566;28;20440;-80
2021/06/06 02:21:06;;;;;;;4.47;3.20;;;15.30;99.90;;;;;;5055485;28;20474;-80
2021/06/06 02:23:36;;;;;;;4.00;3.27;;;15.30;99.90;;;;;;5055421;28;20945;-80
2021/06/06 02:26:08;;;;;;;4.00;3.53;;;15.30;99.90;;;;;;5056014;28;20998;-86
2021/06/06 02:28:44;;;;;;;4.10;3.70;;;15.30;99.90;;;;;;5056682;28;20470;-87
2021/06/06 02:31:18;;;;;;;3.97;3.40;;;15.30;99.90;;;;;;5056745;28;20989;-86
2021/06/06 02:33:48;;;;;;;3.50;3.03;;;15.40;99.90;;;;;;5056687;28;20441;-86
2021/06/06 02:36:18;;;;;;;3.90;3.10;;;15.40;99.90;;;;;;5056511;28;20457;-90
2021/06/06 02:38:49;;;;;;;3.30;2.90;;;15.40;99.90;;;;;;5056403;28;20476;-91
2021/06/06 02:41:19;;;;;;;3.30;3.00;;;15.40;99.90;;;;;;5056576;28;20957;-91
2021/06/06 02:43:52;;;;;;;3.33;2.93;;;15.40;99.90;;;;;;5056188;28;20433;-91
2021/06/06 02:46:22;;;;;;;3.90;3.30;;;15.40;99.90;;;;;;5057288;28;20758;-91
2021/06/06 02:48:53;;;;;;;4.17;3.77;;;15.40;99.90;;;;;;5056319;28;20430;-86
2021/06/06 02:51:22;;;;;;;3.73;3.07;;;15.40;99.90;;;;;;5055471;28;20462;-86
2021/06/06 02:53:57;;;;;;;3.20;2.73;;;15.40;99.90;;;;;;5056217;28;20450;-86
2021/06/06 02:56:27;;;;;;;4.03;3.43;;;15.40;99.90;;;;;;5056124;28;20426;-86
2021/06/06 02:58:59;;;;;;;4.50;3.20;;;15.40;99.90;;;;;;5056258;28;20442;-84
2021/06/06 03:01:31;;;;;;;4.17;3.40;;;15.40;99.90;;;;;;5055825;28;20466;-86
2021/06/06 03:04:00;;;;;;;7.07;4.20;;;15.40;99.90;;;;;;5056606;28;20440;-86
2021/06/06 03:06:32;;;;;;;4.50;3.23;;;15.40;99.90;;;;;;5055898;28;20453;-86
2021/06/06 03:08:58;;;;;;;3.83;3.40;;;15.40;99.90;;;;;;5055801;28;20464;-86
2021/06/06 03:11:26;;;;;;;3.73;2.73;;;15.40;99.90;;;;;;5055803;28;20473;-86
2021/06/06 03:13:58;;;;;;;6.00;3.73;;;15.40;99.90;;;;;;5055781;28;20446;-86
2021/06/06 03:16:25;;;;;;;4.90;2.97;;;15.40;99.90;;;;;;5056372;28;20445;-86
2021/06/06 03:18:55;;;;;;;3.30;3.00;;;15.30;99.90;;;;;;5055756;28;20465;-86
2021/06/06 03:21:25;;;;;;;3.43;2.93;;;15.40;99.90;;;;;;5055842;28;20480;-86
2021/06/06 03:23:54;;;;;;;3.93;2.63;;;15.40;99.90;;;;;;5055396;28;20886;-86
2021/06/06 03:26:21;;;;;;;3.90;2.83;;;15.40;99.90;;;;;;5055379;28;20434;-85
2021/06/06 03:28:48;;;;;;;5.90;2.87;;;15.40;99.90;;;;;;5055189;28;21066;-86
2021/06/06 03:31:19;;;;;;;2.93;2.57;;;15.30;99.90;;;;;;5055378;28;20473;-86
2021/06/06 03:33:50;;;;;;;3.00;2.43;;;15.40;99.90;;;;;;5055615;28;20438;-91
2021/06/06 03:36:21;;;;;;;3.10;2.80;;;15.40;99.90;;;;;;5055295;28;20784;-91
2021/06/06 03:38:47;;;;;;;6.63;2.70;;;15.40;99.90;;;;;;5055123;28;20585;-91
2021/06/06 03:41:13;;;;;;;2.47;2.27;;;15.40;99.90;;;;;;5055283;28;20466;-91
2021/06/06 03:43:40;;;;;;;3.50;2.60;;;15.40;99.90;;;;;;5055285;28;20449;-91
2021/06/06 03:46:07;;;;;;;2.70;2.47;;;15.40;99.90;;;;;;5055194;28;20778;-91
2021/06/06 03:48:35;;;;;;;2.90;2.30;;;15.40;99.90;;;;;;5055062;28;20848;-91
2021/06/06 03:51:01;;;;;;;3.20;2.53;;;15.40;99.90;;;;;;5057046;28;20457;-91
2021/06/06 03:53:28;;;;;;;7.60;2.40;;;15.40;99.90;;;;;;5056262;28;20450;-91
2021/06/06 03:55:55;;;;;;;3.27;2.60;;;15.40;99.90;;;;;;5055175;28;20452;-91
2021/06/06 03:58:22;;;;;;;2.20;2.00;;;15.40;99.90;;;;;;5055265;28;20504;-92
2021/06/06 04:00:49;;;;;;;3.20;2.27;;;15.40;99.90;;;;;;5055329;28;20466;-91
2021/06/06 04:03:17;;;;;;;3.03;2.10;;;15.40;99.90;;;;;;5063240;28;20430;-91
2021/06/06 04:05:46;;;;;;;1.90;1.80;;;15.40;99.90;;;;;;5067385;28;20445;-91
2021/06/06 04:08:12;;;;;;;2.80;1.90;;;15.30;99.90;;;;;;5055150;28;20481;-91
2021/06/06 04:10:40;;;;;;;2.43;2.23;;;15.30;99.90;;;;;;5055326;28;20508;-91
2021/06/06 04:13:07;;;;;;;1.80;1.70;;;15.30;99.90;;;;;;5055061;28;20456;-91
2021/06/06 04:15:33;;;;;;;2.50;2.30;;;15.30;99.90;;;;;;5054976;28;20453;-92
2021/06/06 04:18:08;;;;;;;1.80;1.70;;;15.30;99.90;;;;;;5055735;28;20452;-92
2021/06/06 04:20:35;;;;;;;1.97;1.77;;;15.30;99.90;;;;;;5054783;28;20429;-92
2021/06/06 04:23:02;;;;;;;2.10;1.90;;;15.30;99.90;;;;;;5054798;28;20449;-91
2021/06/06 04:25:29;;;;;;;1.50;1.40;;;15.30;99.90;;;;;;5054432;28;20941;-91
2021/06/06 04:27:55;;;;;;;1.27;1.13;;;15.30;99.90;;;;;;5054226;28;20989;-91
2021/06/06 04:30:22;;;;;;;1.97;1.20;;;15.30;99.90;;;;;;5054525;28;20449;-91
2021/06/06 04:32:49;;;;;;;0.93;0.90;;;15.30;99.90;;;;;;5054303;28;20462;-92
2021/06/06 04:35:15;;;;;;;1.07;1.00;;;15.30;99.90;;;;;;5054636;28;20468;-92
2021/06/06 04:37:42;;;;;;;4.30;1.40;;;15.30;99.90;;;;;;5054367;28;20528;-91
2021/06/06 04:40:11;;;;;;;1.93;1.10;;;15.30;99.90;;;;;;5054524;28;20438;-91
2021/06/06 04:42:38;;;;;;;1.10;1.00;;;15.30;99.90;;;;;;5054491;28;20457;-91
2021/06/06 04:45:07;;;;;;;3.13;1.27;;;15.30;99.90;;;;;;5062860;28;20442;-92
2021/06/06 04:47:33;;;;;;;1.10;1.00;;;15.30;99.90;;;;;;5054418;28;20489;-90
2021/06/06 04:49:59;;;;;;;0.80;0.80;;;15.30;99.90;;;;;;5054365;28;20482;-92
2021/06/06 04:52:26;;;;;;;1.00;0.90;;;15.30;99.90;;;;;;5054237;28;20476;-91
2021/06/06 04:54:52;;;;;;;1.33;0.80;;;15.20;99.90;;;;;;5054351;28;20929;-91
2021/06/06 04:57:20;;;;;;;1.07;0.97;;;15.20;99.90;;;;;;5054391;28;20438;-91
2021/06/06 04:59:46;;;;;;;1.10;1.00;;;15.30;99.90;;;;;;5053721;28;20795;-81
2021/06/06 05:02:12;;;;;;;1.33;1.10;;;15.20;99.90;;;;;;5052893;28;20461;-80
2021/06/06 05:04:40;;;;;;;1.00;1.00;;;15.20;99.90;;;;;;5053003;28;20491;-80
2021/06/06 05:07:06;;;;;;;2.10;1.00;;;15.30;99.90;;;;;;5052710;28;20988;-79
2021/06/06 05:09:33;;;;;;;1.07;1.07;;;15.30;99.90;;;;;;5062370;28;20450;-91
2021/06/06 05:11:59;;;;;;;2.07;1.33;;;15.20;99.90;;;;;;5067521;28;20470;-91
2021/06/06 05:14:27;;;;;;;1.10;1.10;;;15.20;99.90;;;;;;5073015;28;20445;-86
2021/06/06 05:16:53;;;;;;;3.20;1.47;;;15.20;99.90;;;;;;5059968;28;20496;-91
2021/06/06 05:19:19;;;;;;;1.20;1.10;;;15.20;99.90;;;;;;5058099;28;20442;-92
2021/06/06 05:21:45;;;;;;;0.80;0.80;;;15.30;99.90;;;;;;5057189;28;20469;-80
2021/06/06 05:24:12;;;;;;;1.27;1.17;;;15.20;99.90;;;;;;5056800;28;20456;-81
2021/06/06 05:26:38;;;;;;;2.40;1.20;;;15.20;99.90;;;;;;5056789;28;20496;-80
2021/06/06 05:29:05;;;;;;;0.83;0.80;;;15.20;99.90;;;;;;5057847;28;20806;-86
2021/06/06 05:31:33;;;;;;;1.53;0.90;;;15.30;99.90;;;;;;5057351;28;20457;-87
2021/06/06 05:33:59;;;;;;;1.07;0.97;;;15.30;99.90;;;;;;5057780;28;20438;-81
2021/06/06 05:36:26;;;;;;;4.83;3.10;;;15.30;99.90;;;;;;5056646;28;20817;-81
2021/06/06 05:38:52;;;;;;;1.00;1.00;;;15.30;99.90;;;;;;5056121;28;20477;-80
2021/06/06 05:41:19;;;;;;;1.30;1.20;;;15.30;99.90;;;;;;5057525;28;20480;-87
2021/06/06 05:43:45;;;;;;;1.10;0.70;;;15.30;99.90;;;;;;5057620;28;20793;-87
2021/06/06 05:46:16;;;;;;;1.00;1.00;;;15.30;99.90;;;;;;5056645;28;20442;-87
2021/06/06 05:48:43;;;;;;;2.00;1.80;;;15.30;99.90;;;;;;5057232;28;20465;-87
2021/06/06 05:51:10;;;;;;;2.30;1.47;;;15.30;99.90;;;;;;5057058;28;20465;-81
2021/06/06 05:53:36;;;;;;;2.60;1.27;;;15.20;99.90;;;;;;5056014;28;20868;-79
2021/06/06 05:56:05;;;;;;;2.23;1.40;;;15.30;99.90;;;;;;5056108;28;20449;-80
2021/06/06 05:58:31;;;;;;;2.10;1.90;;;15.30;99.90;;;;;;5056155;28;20452;-81
2021/06/06 06:01:00;;;;;;;2.37;1.90;;;15.30;99.90;;;;;;5055893;28;20461;-81
2021/06/06 06:03:27;;;;;;;3.03;1.67;;;15.30;99.90;;;;;;5056082;28;20796;-81
2021/06/06 06:05:54;;;;;;;2.63;2.30;;;15.30;99.90;;;;;;5056098;28;20453;-81
2021/06/06 06:08:24;;;;;;;3.30;2.50;;;15.30;99.90;;;;;;5055772;28;20512;-81
2021/06/06 06:10:52;;;;;;;1.83;1.60;;;15.30;99.90;;;;;;5055931;28;20485;-81
2021/06/06 06:13:20;;;;;;;8.60;3.00;;;15.30;99.90;;;;;;5056030;28;20454;-81
2021/06/06 06:15:46;;;;;;;4.30;2.30;;;15.30;99.90;;;;;;5055910;28;20472;-80
2021/06/06 06:18:13;;;;;;;2.90;2.43;;;15.30;99.90;;;;;;5055892;28;20929;-81
2021/06/06 06:20:41;;;;;;;8.00;4.20;;;15.40;99.90;;;;;;5055379;28;20446;-80
2021/06/06 06:23:08;;;;;;;5.60;3.80;;;15.30;99.90;;;;;;5055958;28;20457;-81
2021/06/06 06:25:35;;;;;;;6.20;3.37;;;15.30;99.90;;;;;;5054896;28;20446;-83
2021/06/06 06:28:01;;;;;;;7.70;4.97;;;15.30;99.90;;;;;;5056500;28;20484;-91
2021/06/06 06:30:32;;;;;;;11.40;4.60;;;15.40;99.90;;;;;;5055647;28;20992;-81
2021/06/06 06:32:59;;;;;;;6.67;4.67;;;15.40;99.90;;;;;;5055568;28;20426;-81
2021/06/06 06:35:27;;;;;;;9.33;4.80;;;15.30;99.90;;;;;;5055520;28;20473;-81
2021/06/06 06:37:54;;;;;;;10.63;5.10;;;15.40;99.90;;;;;;5054925;28;21000;-81
2021/06/06 06:40:22;;;;;;;9.40;6.50;;;15.40;99.90;;;;;;5055121;28;20475;-80
2021/06/06 06:42:49;;;;;;;7.60;5.47;;;15.30;99.90;;;;;;5055104;28;20454;-80
2021/06/06 06:45:20;;;;;;;11.77;6.57;;;15.30;99.90;;;;;;5055556;28;20450;-81
2021/06/06 06:47:47;;;;;;;13.47;6.77;;;15.30;99.90;;;;;;5055045;28;21054;-82
2021/06/06 06:50:16;;;;;;;11.93;6.73;;;15.30;99.90;;;;;;5055096;28;20441;-82
2021/06/06 06:52:42;;;;;;;10.00;7.17;;;15.30;99.90;;;;;;5055154;28;20468;-82
2021/06/06 06:55:13;;;;;;;9.17;6.63;;;15.30;99.90;;;;;;5054870;28;20816;-80
2021/06/06 06:57:41;;;;;;;9.20;6.60;;;15.30;99.90;;;;;;5055338;28;20488;-92
2021/06/06 07:00:12;;;;;;;11.73;7.10;;;15.30;99.90;;;;;;5056234;28;20503;-87
2021/06/06 07:02:38;;;;;;;13.83;7.53;;;15.30;99.90;;;;;;5056412;28;20477;-86
2021/06/06 07:05:06;;;;;;;9.50;6.83;;;15.40;99.90;;;;;;5056088;28;20457;-87
2021/06/06 07:07:32;;;;;;;9.50;6.00;;;15.40;99.90;;;;;;5056015;28;20477;-86
2021/06/06 07:09:59;;;;;;;7.53;5.70;;;15.50;99.90;;;;;;5056351;28;20816;-92
2021/06/06 07:12:25;;;;;;;9.00;6.10;;;15.50;99.90;;;;;;5055814;28;20453;-91
2021/06/06 07:14:53;;;;;;;9.27;6.40;;;15.60;99.90;;;;;;5055979;28;20845;-92
2021/06/06 07:17:19;;;;;;;8.80;5.90;;;15.60;99.90;;;;;;5055790;28;20953;-81
2021/06/06 07:19:45;;;;;;;10.43;7.00;;;15.60;99.90;;;;;;5063324;28;20434;-91
2021/06/06 07:22:11;;;;;;;11.17;7.77;;;15.60;99.90;;;;;;5066267;28;20473;-91
2021/06/06 07:24:38;;;;;;;10.10;7.90;;;15.60;99.90;;;;;;5059576;28;20446;-87
2021/06/06 07:27:05;;;;;;;12.83;7.83;;;15.70;99.90;;;;;;5055271;28;20449;-87
2021/06/06 07:29:34;;;;;;;9.80;7.60;;;15.70;99.90;;;;;;5055885;28;20444;-87
2021/06/06 07:32:03;;;;;;;10.40;7.00;;;15.70;99.90;;;;;;5055514;28;20598;-87
2021/06/06 07:34:30;;;;;;;9.53;6.73;;;15.80;99.90;;;;;;5055594;28;20442;-87
2021/06/06 07:37:01;;;;;;;8.63;6.83;;;15.80;99.90;;;;;;5054264;28;20825;-88
2021/06/06 07:39:27;;;;;;;10.57;6.63;;;16.00;99.90;;;;;;5055808;28;20410;-88
2021/06/06 07:41:54;;;;;;;7.00;6.00;;;16.00;99.90;;;;;;5060127;28;20454;-91
2021/06/06 07:44:21;;;;;;;7.63;6.90;;;16.00;99.90;;;;;;5055813;28;20441;-82
2021/06/06 07:46:47;;;;;;;8.93;6.60;;;16.00;99.90;;;;;;5054145;28;20450;-82
2021/06/06 07:49:15;;;;;;;10.67;6.70;;;15.90;99.90;;;;;;5054057;28;20849;-81
2021/06/06 07:51:41;;;;;;;7.73;5.87;;;15.90;99.90;;;;;;5054046;28;20472;-82
2021/06/06 07:54:08;;;;;;;7.83;6.30;;;15.90;99.90;;;;;;5054045;28;20469;-82
2021/06/06 07:56:35;;;;;;;5.40;4.90;;;15.90;99.90;;;;;;5053938;28;20449;-82
2021/06/06 07:59:02;;;;;;;6.27;5.60;;;15.80;99.90;;;;;;5053798;28;20457;-81
2021/06/06 08:01:28;;;;;;;5.97;4.40;;;15.90;99.90;;;;;;5053523;28;20465;-81
2021/06/06 08:03:54;;;;;;;6.20;5.20;;;15.90;99.90;;;;;;5053923;28;20545;-82
2021/06/06 08:06:23;;;;;;;6.10;5.40;;;15.90;99.90;;;;;;5053828;28;20450;-81
2021/06/06 08:08:49;;;;;;;7.00;6.30;;;15.90;99.90;;;;;;5053689;28;20489;-82
2021/06/06 08:11:15;;;;;;;10.10;6.30;;;15.90;99.90;;;;;;5053338;28;20981;-81
2021/06/06 08:13:42;;;;;;;6.43;5.23;;;16.00;99.90;;;;;;5053644;28;20442;-81
2021/06/06 08:16:09;;;;;;;6.07;5.20;;;15.90;99.90;;;;;;5053580;28;20458;-82
2021/06/06 08:18:38;;;;;;;10.20;5.93;;;16.00;99.90;;;;;;5053653;28;20445;-81
2021/06/06 08:21:07;;;;;;;6.30;4.60;;;15.90;99.90;;;;;;5053558;28;20476;-81
2021/06/06 08:23:36;;;;;;;10.07;5.90;;;16.00;99.90;;;;;;5053533;28;20441;-81
2021/06/06 08:26:03;;;;;;;8.37;4.97;;;16.10;99.90;;;;;;5053288;28;20464;-81
2021/06/06 08:28:30;;;;;;;6.53;4.60;;;16.10;99.90;;;;;;5053400;28;20553;-81
2021/06/06 08:30:59;;;;;;;8.73;5.23;;;16.10;99.90;;;;;;5053866;28;20457;-83
2021/06/06 08:33:29;;;;;;;7.40;5.40;;;16.10;99.90;;;;;;5053728;28;20449;-83
2021/06/06 08:35:58;;;;;;;9.07;5.93;;;16.20;99.90;;;;;;5053621;28;20476;-81
2021/06/06 08:38:26;;;;;;;6.17;4.90;;;16.20;99.90;;;;;;5053059;28;20480;-87
2021/06/06 08:40:59;;;;;;;6.43;5.03;;;16.10;99.90;;;;;;5054051;28;20464;-87
2021/06/06 08:43:34;;;;;;;7.00;4.93;;;16.10;99.90;;;;;;5054445;28;20450;-88
2021/06/06 08:46:01;;;;;;;6.33;4.20;;;16.00;99.90;;;;;;5054437;28;20434;-88
2021/06/06 08:48:30;;;;;;;4.13;3.63;;;16.00;99.90;;;;;;5053721;28;20484;-87
2021/06/06 08:51:03;;;;;;;5.07;3.90;;;16.10;99.90;;;;;;5053657;28;20816;-81
2021/06/06 08:53:33;;;;;;;5.73;4.63;;;16.10;99.90;;;;;;5053797;28;20430;-90
2021/06/06 08:56:16;;;;;;;9.03;5.00;;;16.10;99.90;;;;;;5054144;28;20439;-90
2021/06/06 08:58:46;;;;;;;6.07;4.50;;;16.10;99.90;;;;;;5054033;28;20430;-83
2021/06/06 09:01:21;;;;;;;6.00;4.60;;;16.10;99.90;;;;;;5053239;28;20445;-83
2021/06/06 09:03:48;;;;;;;6.30;4.57;;;16.10;99.90;;;;;;5053334;28;20406;-82
2021/06/06 09:06:20;;;;;;;8.90;4.60;;;16.00;99.90;;;;;;5053569;28;20449;-83
2021/06/06 09:08:46;;;;;;;7.87;4.30;;;16.00;99.90;;;;;;5053793;28;20973;-90
2021/06/06 09:11:17;;;;;;;5.63;4.60;;;15.90;99.90;;;;;;5054073;28;20472;-83
2021/06/06 09:13:44;;;;;;;5.83;4.60;;;16.00;99.90;;;;;;5054338;28;20477;-87
2021/06/06 09:16:18;;;;;;;5.63;4.60;;;16.00;99.90;;;;;;5053847;28;20449;-86
2021/06/06 09:18:47;;;;;;;8.00;5.67;;;16.00;99.90;;;;;;5054130;28;20423;-86
2021/06/06 09:21:17;;;;;;;9.33;5.93;;;16.00;99.90;;;;;;5054052;28;20992;-90
2021/06/06 09:23:44;;;;;;;8.23;5.67;;;16.00;99.90;;;;;;5053871;28;20441;-83
2021/06/06 09:26:20;;;;;;;13.13;7.07;;;16.00;99.90;;;;;;5053306;28;20999;-87
2021/06/06 09:28:49;;;;;;;11.00;7.03;;;16.00;99.90;;;;;;5053035;28;20466;-82
2021/06/06 09:31:23;;;;;;;12.37;7.70;;;16.00;99.90;;;;;;5053112;28;20497;-82
2021/06/06 09:33:59;;;;;;;11.90;7.37;;;16.00;99.90;;;;;;5053398;28;20430;-83
2021/06/06 09:36:30;;;;;;;16.43;7.70;;;16.00;99.90;;;;;;5053422;28;20433;-83
2021/06/06 09:39:09;;;;;;;11.70;7.47;;;16.00;99.90;;;;;;5052723;28;20561;-84
2021/06/06 09:41:39;;;;;;;11.43;7.37;;;16.10;99.90;;;;;;5053182;28;20985;-82
2021/06/06 09:44:09;;;;;;;12.63;7.67;;;16.10;99.90;;;;;;5053307;28;20433;-86
2021/06/06 09:46:40;;;;;;;14.00;8.00;;;16.00;99.90;;;;;;5053979;28;20795;-90
2021/06/06 09:49:10;;;;;;;10.47;6.60;;;15.90;99.90;;;;;;5053325;28;21079;-81
2021/06/06 09:51:36;;;;;;;11.90;6.57;;;15.90;99.90;;;;;;5052974;28;20474;-81
2021/06/06 09:54:12;;;;;;;8.33;5.60;;;15.80;99.90;;;;;;5052495;28;20735;-81
2021/06/06 09:56:41;;;;;;;7.10;5.23;;;15.80;99.90;;;;;;5052834;28;20430;-80
2021/06/06 09:59:10;;;;;;;11.50;5.97;;;15.80;99.90;;;;;;5053052;28;20423;-90
2021/06/06 10:01:47;;;;;;;6.97;5.47;;;15.80;99.90;;;;;;5056907;28;20465;-83
2021/06/06 10:04:20;;;;;;;7.10;4.67;;;15.80;99.90;;;;;;5056670;28;20572;-84
2021/06/06 10:06:47;;;;;;;6.30;4.60;;;15.90;99.90;;;;;;5057334;28;20430;-89
2021/06/06 10:09:24;;;;;;;8.73;5.70;;;15.90;99.90;;;;;;5057068;28;20519;-86
2021/06/06 10:11:57;;;;;;;8.50;5.60;;;15.90;99.90;;;;;;5056508;28;20473;-83
2021/06/06 10:14:28;;;;;;;10.10;6.40;;;15.90;99.90;;;;;;5056377;28;20818;-90
2021/06/06 10:16:58;;;;;;;8.60;6.00;;;16.00;99.90;;;;;;5057120;28;20434;-89
2021/06/06 10:19:29;;;;;;;8.40;6.77;;;16.00;99.90;;;;;;5056145;28;20434;-81
2021/06/06 10:21:59;;;;;;;9.30;7.13;;;16.00;99.90;;;;;;5055949;28;20484;-83
2021/06/06 10:24:31;;;;;;;11.10;7.13;;;16.00;99.90;;;;;;5055948;28;20436;-83
2021/06/06 10:27:04;;;;;;;10.20;7.70;;;16.00;99.90;;;;;;5055950;28;20434;-86
2021/06/06 10:29:35;;;;;;;11.73;8.53;;;16.10;99.90;;;;;;5056465;28;20462;-83
2021/06/06 10:32:08;;;;;;;9.23;7.13;;;16.10;99.90;;;;;;5056596;28;20474;-91
2021/06/06 10:34:40;;;;;;;11.30;8.40;;;16.00;99.90;;;;;;5056654;28;20436;-89
2021/06/06 10:37:06;;;;;;;10.23;8.03;;;16.00;99.90;;;;;;5056511;28;20430;-90
2021/06/06 10:39:36;;;;;;;10.57;7.60;;;16.00;99.90;;;;;;5056805;28;20434;-89
2021/06/06 10:42:08;;;;;;;13.83;9.97;;;16.10;99.90;;;;;;5056656;28;20482;-83
2021/06/06 10:44:42;;;;;;;15.37;10.17;;;16.10;99.90;;;;;;5056305;28;20521;-87
2021/06/06 10:47:15;;;;;;;11.50;8.63;;;16.20;99.90;;;;;;5056314;28;20460;-87
2021/06/06 10:49:51;;;;;;;12.50;9.03;;;16.10;99.90;;;;;;5056275;28;20472;-89
2021/06/06 10:52:24;;;;;;;14.93;10.53;;;16.20;99.90;;;;;;5055815;28;20473;-83
2021/06/06 10:54:54;;;;;;;14.90;10.83;;;16.20;99.90;;;;;;5055228;28;20418;-82
2021/06/06 10:57:33;;;;;;;13.87;9.93;;;16.20;99.90;;;;;;5055404;28;20491;-81
2021/06/06 11:00:24;;;;;;;18.30;11.60;;;16.20;99.90;;;;;;5055068;28;20434;-81
2021/06/06 11:02:57;;;;;;;19.00;11.30;;;16.30;99.90;;;;;;5055949;28;20421;-87
2021/06/06 11:05:39;;;;;;;16.27;11.07;;;16.40;99.90;;;;;;5056045;28;20446;-83
2021/06/06 11:08:21;;;;;;;16.30;10.73;;;16.40;99.90;;;;;;5055167;28;20469;-87
2021/06/06 11:10:48;;;;;;;18.10;12.40;;;16.40;99.90;;;;;;5055964;28;20528;-89
2021/06/06 11:13:33;;;;;;;19.80;12.10;;;16.40;99.90;;;;;;5055609;28;20796;-82
2021/06/06 11:16:01;;;;;;;17.00;10.80;;;16.40;99.90;;;;;;5055076;28;20446;-88
2021/06/06 11:18:28;;;;;;;21.57;13.70;;;16.40;99.90;;;;;;5055434;28;20437;-80
2021/06/06 11:20:59;;;;;;;19.23;11.87;;;16.40;99.90;;;;;;5054731;28;20469;-81
2021/06/06 11:23:35;;;;;;;22.37;11.97;;;16.30;99.90;;;;;;5054866;28;20533;-80
2021/06/06 11:26:16;;;;;;;18.23;12.07;;;16.30;99.90;;;;;;5055586;28;20477;-83
2021/06/06 11:28:44;;;;;;;18.53;11.83;;;16.30;99.90;;;;;;5055277;28;20457;-83
2021/06/06 11:31:25;;;;;;;23.80;14.43;;;16.30;99.90;;;;;;5055183;28;20472;-82
2021/06/06 11:33:58;;;;;;;19.63;12.73;;;16.30;99.90;;;;;;5054286;28;20433;-80
2021/06/06 11:36:31;;;;;;;18.60;12.43;;;16.30;99.90;;;;;;5054748;28;20434;-85
2021/06/06 11:39:11;;;;;;;22.30;13.63;;;16.30;99.90;;;;;;5055445;28;20472;-85
2021/06/06 11:41:39;;;;;;;20.67;12.20;;;16.40;99.90;;;;;;5055415;28;20493;-88
2021/06/06 11:44:21;;;;;;;23.10;14.43;;;16.40;99.90;;;;;;5055819;28;20430;-89
2021/06/06 11:46:52;;;;;;;26.00;14.67;;;16.40;99.90;;;;;;5055632;28;20434;-90
2021/06/06 11:49:33;;;;;;;21.00;13.93;;;16.50;99.90;;;;;;5054429;28;20470;-82
2021/06/06 11:52:08;;;;;;;23.20;15.10;;;16.50;99.90;;;;;;5054234;28;20863;-80
2021/06/06 11:54:39;;;;;;;29.53;16.40;;;16.50;99.90;;;;;;5053857;28;20865;-80
2021/06/06 11:57:08;;;;;;;33.77;18.20;;;16.50;99.90;;;;;;5053767;28;20464;-79
2021/06/06 11:59:42;;;;;;;36.10;18.90;;;16.60;99.90;;;;;;5053765;28;20426;-81
2021/06/06 12:02:11;;;;;;;30.70;18.23;;;16.70;99.90;;;;;;5054013;28;20489;-81
2021/06/06 12:04:39;;;;;;;34.03;18.13;;;16.60;99.90;;;;;;5054059;28;20414;-82
2021/06/06 12:07:12;;;;;;;30.90;16.27;;;16.60;99.90;;;;;;5054291;28;20438;-87
2021/06/06 12:09:40;;;;;;;28.90;16.00;;;16.50;99.90;;;;;;5054695;28;20449;-87
2021/06/06 12:12:09;;;;;;;34.03;17.73;;;16.40;99.90;;;;;;5054727;28;20473;-85
2021/06/06 12:14:37;;;;;;;33.90;17.30;;;16.30;99.90;;;;;;5055061;28;20583;-85
2021/06/06 12:17:07;;;;;;;31.97;18.00;;;16.10;99.90;;;;;;5054305;28;20430;-85
2021/06/06 12:19:41;;;;;;;36.13;19.70;;;16.00;99.90;;;;;;5054729;28;20539;-85
2021/06/06 12:22:10;;;;;;;39.30;20.50;;;15.90;99.90;;;;;;5054281;28;20466;-84
2021/06/06 12:24:36;;;;;;;35.67;19.57;;;15.80;99.90;;;;;;5053847;28;20446;-79
2021/06/06 12:27:05;;;;;;;36.40;21.20;;;15.80;99.90;;;;;;5053457;28;20461;-80
2021/06/06 12:29:37;;;;;;;40.20;20.97;;;15.70;99.90;;;;;;5054189;28;20482;-85
2021/06/06 12:32:12;;;;;;;40.37;21.97;;;15.70;99.90;;;;;;5054017;28;20972;-84
2021/06/06 12:34:39;;;;;;;49.53;22.40;;;15.70;99.90;;;;;;5053473;28;20442;-79
2021/06/06 12:37:09;;;;;;;40.23;21.47;;;15.70;99.90;;;;;;5053001;28;20913;-79
2021/06/06 12:39:38;;;;;;;51.43;22.73;;;15.70;99.90;;;;;;5053411;28;20430;-79
2021/06/06 12:42:07;;;;;;;42.10;22.43;;;15.70;99.90;;;;;;5053282;28;20442;-79
2021/06/06 12:44:37;;;;;;;47.50;22.70;;;15.70;99.90;;;;;;5053805;28;20449;-79
2021/06/06 12:47:08;;;;;;;37.90;21.40;;;15.70;99.90;;;;;;5053519;28;20461;-87
2021/06/06 12:49:39;;;;;;;40.93;20.80;;;15.80;99.90;;;;;;5054372;28;20477;-85
2021/06/06 12:52:16;;;;;;;38.10;20.40;;;15.80;99.90;;;;;;5064835;28;20453;-85
2021/06/06 12:54:43;;;;;;;35.40;19.60;;;15.70;99.90;;;;;;5052934;28;20434;-79